Terminal Aerodrome Forecast
Issued by NWS Jackson, KY

Home | Current Version | Previous Version | Text Only | Print | Product List | Glossary On
Versions: 1 2 3 4 5 6 7 8 9 10 11 12 13 14 15
000
FTUS43 KJKL 252320
TAFJKL
TAF
KJKL 252320Z 2600/2624 VRB03KT P6SM OVC004
     FM260100 06004KT 1SM +TSRA OVC004CB
     FM260300 02006KT 6SM -SHRA OVC004
     FM261700 VRB03KT P6SM SCT008 OVC012
     FM262100 02006KT P6SM SCT025 BKN035=

USA.gov is the U.S. government's official web portal to all federal, state and local government web resources and services.